createdAt,value
2024-05-09T00:06:22.867Z,96795.63
2024-05-09T00:16:29.637Z,96797.66
2024-05-09T00:26:33.879Z,96804.63
2024-05-09T00:36:40.742Z,96793.63
2024-05-09T00:46:45.177Z,96791.47
2024-05-09T00:56:52.354Z,96782.91
2024-05-09T01:06:56.588Z,96778.06
2024-05-09T01:17:03.424Z,96772.13
2024-05-09T01:27:10.240Z,96766.66
2024-05-09T01:37:14.452Z,96769.84
2024-05-09T01:47:21.353Z,96763.34
2024-05-09T01:57:25.593Z,96767.75
2024-05-09T02:07:32.387Z,96766.97
2024-05-09T02:17:36.679Z,96769.75
2024-05-09T02:27:44.319Z,96765.50
2024-05-09T02:37:48.687Z,96763.06
2024-05-09T02:47:55.770Z,96767.19
2024-05-09T02:58:00.107Z,96772.16
2024-05-09T03:08:07.201Z,96769.47
2024-05-09T03:18:12.517Z,96767.03
2024-05-09T03:28:19.627Z,96780.41
2024-05-09T03:38:23.793Z,96770.09
2024-05-09T03:48:30.708Z,96762.81
2024-05-09T03:58:34.905Z,96768.75
2024-05-09T04:08:41.696Z,96774.41
2024-05-09T04:18:46.154Z,96787.78
2024-05-09T04:28:52.983Z,96781.53
2024-05-09T04:38:57.148Z,96770.63
2024-05-09T04:49:04.076Z,96768.47
2024-05-09T04:59:08.385Z,96783.25
2024-05-09T05:09:15.257Z,96774.94
2024-05-09T05:19:19.552Z,96778.22
2024-05-09T05:29:26.797Z,96791.59
2024-05-09T05:39:30.975Z,96786.16
2024-05-09T05:49:37.888Z,96800.28
2024-05-09T05:59:42.300Z,96808.78
2024-05-09T06:09:50.431Z,96803.38
2024-05-09T06:19:55.003Z,96808.78
2024-05-09T06:30:01.797Z,96818.25
2024-05-09T06:40:07.480Z,96803.88
2024-05-09T06:50:22.937Z,96815.59
2024-05-09T07:00:35.711Z,96816.59
2024-05-09T07:10:46.473Z,96808.25
2024-05-09T07:20:51.229Z,96804.44
2024-05-09T07:30:58.122Z,96807.22
2024-05-09T07:41:02.369Z,96802.34
2024-05-09T08:01:16.928Z,96796.63
2024-05-09T08:11:24.223Z,96791.53
2024-05-09T08:21:29.662Z,96780.72
2024-05-09T08:31:39.229Z,96775.38
2024-05-09T08:41:44.637Z,96773.53
2024-05-09T08:51:51.473Z,96771.81
2024-05-09T09:01:55.832Z,96772.63
2024-05-09T09:12:02.865Z,96771.88
2024-05-09T09:22:07.412Z,96772.81
2024-05-09T09:32:14.240Z,96768.53
2024-05-09T09:42:19.179Z,96776.38
2024-05-09T09:52:26.306Z,96772.09
2024-05-09T10:02:30.692Z,96772.09
2024-05-09T10:12:37.863Z,96759.72
2024-05-09T10:22:50.349Z,96755.44
2024-05-09T10:32:59.156Z,96750.53
2024-05-09T10:43:06.337Z,96747.72
2024-05-09T10:53:13.353Z,96734.63
2024-05-09T11:03:17.635Z,96739.81
2024-05-09T11:13:34.472Z,96723.06
2024-05-09T11:23:38.647Z,96706.59
2024-05-09T11:33:46.659Z,96709.03
2024-05-09T11:43:51.024Z,96709.31
2024-05-09T11:53:57.890Z,96706.59
2024-05-09T12:04:02.309Z,96689.81
2024-05-09T12:14:09.308Z,96681.13
2024-05-09T12:24:16.960Z,96684.38
2024-05-09T12:34:25.319Z,96670.53
2024-05-09T12:44:29.525Z,96679.66
2024-05-09T12:54:36.317Z,96668.53
2024-05-09T13:04:40.639Z,96668.75
2024-05-09T13:14:47.436Z,96655.84
2024-05-09T13:24:51.968Z,96660.16
2024-05-09T13:34:58.802Z,96648.19
2024-05-09T13:45:02.972Z,96634.09
2024-05-09T13:55:11.105Z,96621.63
2024-05-09T14:05:15.844Z,96618.94
2024-05-09T14:15:22.795Z,96614.56
2024-05-09T14:25:28.187Z,96601.63
2024-05-09T14:35:35.288Z,96607.81
2024-05-09T14:45:39.701Z,96585.44
2024-05-09T14:55:46.713Z,96588.31
2024-05-09T15:05:51.674Z,96577.53
2024-05-09T15:15:59.045Z,96565.25
2024-05-09T15:26:03.326Z,96554.41
2024-05-09T15:36:10.416Z,96565.66
2024-05-09T15:46:14.950Z,96551.34
2024-05-09T15:56:21.983Z,96547.00
2024-05-09T16:06:26.191Z,96533.69
2024-05-09T16:16:33.163Z,96540.03
2024-05-09T16:26:37.431Z,96525.97
2024-05-09T16:36:44.249Z,96524.66
2024-05-09T16:46:48.504Z,96531.75
2024-05-09T16:56:56.948Z,96519.34
2024-05-09T17:07:01.272Z,96521.78
2024-05-09T17:17:10.169Z,96519.41
2024-05-09T17:27:14.412Z,96516.44
2024-05-09T17:37:21.275Z,96515.97
2024-05-09T17:47:25.685Z,96521.63
2024-05-09T17:57:32.584Z,96519.78
2024-05-09T18:07:36.936Z,96511.44
2024-05-09T18:17:43.803Z,96510.69
2024-05-09T18:27:49.296Z,96519.69
2024-05-09T18:37:56.349Z,96512.41
2024-05-09T18:48:00.751Z,96511.63
2024-05-09T18:58:07.931Z,96521.06
2024-05-09T19:08:12.595Z,96529.88
2024-05-09T19:18:19.610Z,96538.41
2024-05-09T19:28:23.905Z,96540.22
2024-05-09T19:38:30.814Z,96548.13
2024-05-09T19:48:35.119Z,96538.81
2024-05-09T19:58:41.945Z,96543.75
2024-05-09T20:08:46.108Z,96550.31
2024-05-09T20:18:53.111Z,96550.38
2024-05-09T20:28:57.356Z,96556.03
2024-05-09T20:39:04.210Z,96557.56
2024-05-09T20:49:08.522Z,96564.28
2024-05-09T20:59:15.382Z,96563.91
2024-05-09T21:09:19.591Z,96549.78
2024-05-09T21:19:26.434Z,96553.03
2024-05-09T21:29:30.692Z,96541.22
2024-05-09T21:39:38.122Z,96544.25
2024-05-09T21:49:42.546Z,96536.81
2024-05-09T21:59:49.379Z,96528.97
2024-05-09T22:09:53.566Z,96525.00
2024-05-09T22:20:00.367Z,96529.94
2024-05-09T22:30:07.192Z,96523.34
2024-05-09T22:40:28.275Z,96533.69
2024-05-09T22:50:41.395Z,96527.38
2024-05-09T23:00:48.261Z,96523.53
2024-05-09T23:10:52.664Z,96524.19
2024-05-09T23:20:59.468Z,96523.94
2024-05-09T23:31:03.678Z,96524.00
2024-05-09T23:41:11.049Z,96524.16
2024-05-09T23:51:15.212Z,96528.06
